Time;durP1;ratioP1;P1;durP2;ratioP2;P2;SDS_P1;SDS_P2;PMS_P1;PMS_P2;Temp;Humidity;BMP_temperature;BMP_pressure;BME280_temperature;BME280_humidity;BME280_pressure;Samples;Min_cycle;Max_cycle;Signal;HPM_P1;HPM_P2
2022/03/25 00:02:06;;;;;;;21.67;12.70;;;6.70;69.60;;;;;;5070556;28;20222;-74
2022/03/25 00:04:32;;;;;;;24.53;13.40;;;6.70;71.00;;;;;;5072068;28;20470;-74
2022/03/25 00:06:57;;;;;;;19.43;13.13;;;6.70;72.30;;;;;;5070741;28;20516;-73
2022/03/25 00:09:23;;;;;;;21.40;12.77;;;6.70;72.70;;;;;;5072788;28;20207;-74
2022/03/25 00:11:48;;;;;;;22.77;14.50;;;6.70;72.10;;;;;;5071143;28;20561;-74
2022/03/25 00:14:14;;;;;;;23.60;14.27;;;6.70;73.70;;;;;;5072642;28;20602;-74
2022/03/25 00:16:41;;;;;;;20.13;13.53;;;6.70;73.40;;;;;;5071259;28;20613;-75
2022/03/25 00:19:08;;;;;;;20.23;14.07;;;6.60;73.40;;;;;;5071051;28;20465;-73
2022/03/25 00:21:34;;;;;;;23.00;14.33;;;6.60;73.50;;;;;;5072069;28;20479;-73
2022/03/25 00:24:00;;;;;;;20.57;13.87;;;6.50;72.30;;;;;;5072182;28;20420;-72
2022/03/25 00:26:25;;;;;;;23.17;14.13;;;6.40;73.20;;;;;;5072358;28;20844;-73
2022/03/25 00:28:51;;;;;;;38.63;15.87;;;6.40;72.80;;;;;;5071579;28;20187;-73
2022/03/25 00:31:17;;;;;;;18.27;12.43;;;6.40;73.40;;;;;;5071841;28;20186;-73
2022/03/25 00:33:44;;;;;;;21.93;13.80;;;6.30;74.10;;;;;;5071675;28;20265;-73
2022/03/25 00:36:10;;;;;;;21.93;12.73;;;6.40;73.10;;;;;;5070302;28;20422;-74
2022/03/25 00:38:37;;;;;;;20.17;13.70;;;6.50;71.70;;;;;;5071463;28;20415;-73
2022/03/25 00:41:06;;;;;;;23.87;14.63;;;6.60;72.70;;;;;;5071253;28;20697;-73
2022/03/25 00:43:34;;;;;;;22.97;14.90;;;6.70;73.60;;;;;;5071136;28;20425;-73
2022/03/25 00:46:00;;;;;;;22.23;14.37;;;6.60;72.90;;;;;;5070949;28;20797;-73
2022/03/25 00:48:27;;;;;;;22.97;14.03;;;6.50;73.90;;;;;;5070942;28;20421;-74
2022/03/25 00:50:53;;;;;;;20.70;13.57;;;6.40;74.00;;;;;;5071100;28;20441;-73
2022/03/25 00:53:19;;;;;;;21.03;13.43;;;6.40;75.60;;;;;;5070753;28;20414;-73
2022/03/25 00:55:45;;;;;;;23.73;14.00;;;6.30;76.20;;;;;;5070511;28;20516;-74
2022/03/25 00:58:10;;;;;;;23.97;13.03;;;6.20;77.10;;;;;;5070306;28;20194;-73
2022/03/25 01:00:37;;;;;;;19.80;13.27;;;6.20;78.10;;;;;;5070102;28;20217;-75
2022/03/25 01:03:03;;;;;;;26.37;15.20;;;6.20;77.80;;;;;;5070183;28;20418;-74
2022/03/25 01:05:29;;;;;;;23.90;13.57;;;6.10;79.20;;;;;;5070228;28;20410;-74
2022/03/25 01:07:55;;;;;;;20.43;14.10;;;6.00;80.50;;;;;;5070061;28;20538;-73
2022/03/25 01:10:23;;;;;;;26.50;14.20;;;6.00;80.60;;;;;;5070056;28;20441;-74
2022/03/25 01:12:48;;;;;;;26.63;14.30;;;5.90;81.20;;;;;;5069798;28;20197;-73
2022/03/25 01:15:14;;;;;;;21.13;14.63;;;5.90;81.50;;;;;;5069982;28;20805;-74
2022/03/25 01:17:39;;;;;;;32.87;15.57;;;5.80;83.00;;;;;;5068546;28;20261;-74
2022/03/25 01:20:06;;;;;;;21.97;13.30;;;5.80;81.60;;;;;;5069924;28;20203;-73
2022/03/25 01:22:32;;;;;;;27.23;14.70;;;5.90;80.50;;;;;;5069717;28;20211;-73
2022/03/25 01:24:58;;;;;;;27.83;13.93;;;5.90;82.70;;;;;;5068418;28;20467;-73
2022/03/25 01:27:24;;;;;;;22.03;13.53;;;5.90;80.50;;;;;;5069553;28;20413;-73
2022/03/25 01:29:50;;;;;;;21.23;13.13;;;5.80;81.10;;;;;;5069107;28;20998;-73
2022/03/25 01:32:16;;;;;;;20.90;13.87;;;5.80;81.60;;;;;;5069406;28;20735;-75
2022/03/25 01:34:42;;;;;;;22.20;13.43;;;5.70;80.40;;;;;;5051385;28;20433;-73
2022/03/25 01:37:07;;;;;;;26.07;13.60;;;5.70;80.40;;;;;;5069349;28;20416;-74
2022/03/25 01:39:33;;;;;;;24.57;13.60;;;5.70;81.10;;;;;;5067987;28;20918;-74
2022/03/25 01:41:59;;;;;;;26.07;15.27;;;5.60;82.50;;;;;;5069108;28;20287;-74
2022/03/25 01:44:29;;;;;;;22.57;14.27;;;5.70;82.00;;;;;;5069402;28;20657;-74
2022/03/25 01:46:58;;;;;;;22.50;14.00;;;5.60;82.00;;;;;;5069002;28;20409;-75
2022/03/25 01:49:25;;;;;;;22.40;15.20;;;5.60;82.40;;;;;;5067448;28;20437;-74
2022/03/25 01:51:55;;;;;;;29.37;15.03;;;5.60;83.10;;;;;;5069040;28;20606;-74
2022/03/25 01:54:24;;;;;;;22.70;14.50;;;5.50;84.50;;;;;;5068899;28;20461;-75
2022/03/25 01:57:05;;;;;;;22.10;14.77;;;5.40;85.00;;;;;;5068831;28;20835;-76
2022/03/25 01:59:32;;;;;;;24.07;13.70;;;5.40;85.50;;;;;;5051565;28;20460;-75
2022/03/25 02:01:58;;;;;;;23.87;14.60;;;5.30;85.90;;;;;;5067218;28;20480;-75
2022/03/25 02:04:25;;;;;;;23.00;14.57;;;5.30;85.40;;;;;;5068799;28;20432;-74
2022/03/25 02:06:52;;;;;;;24.10;15.80;;;5.20;85.10;;;;;;5068632;28;20801;-75
2022/03/25 02:09:17;;;;;;;22.20;14.10;;;5.30;84.40;;;;;;5067175;28;20986;-74
2022/03/25 02:11:43;;;;;;;22.63;13.63;;;5.20;84.50;;;;;;5068497;28;20441;-75
2022/03/25 02:14:12;;;;;;;24.70;14.93;;;5.30;84.40;;;;;;5050477;28;20190;-75
2022/03/25 02:16:44;;;;;;;20.40;13.60;;;5.20;85.20;;;;;;5067063;28;20479;-75
2022/03/25 02:19:11;;;;;;;23.87;14.03;;;5.10;85.30;;;;;;5068522;28;20445;-75
2022/03/25 02:21:38;;;;;;;26.20;15.13;;;5.00;85.10;;;;;;5067040;28;20466;-73
2022/03/25 02:24:06;;;;;;;22.37;14.47;;;5.10;85.90;;;;;;5068412;28;20421;-74
2022/03/25 02:26:33;;;;;;;24.27;14.53;;;5.10;85.70;;;;;;5068314;28;20520;-75
2022/03/25 02:29:03;;;;;;;22.73;14.27;;;5.00;86.40;;;;;;5066870;28;20436;-74
2022/03/25 02:31:29;;;;;;;22.60;14.03;;;5.00;86.50;;;;;;5068285;28;20183;-74
2022/03/25 02:33:58;;;;;;;23.17;14.90;;;4.90;87.00;;;;;;5066654;28;20959;-74
2022/03/25 02:36:23;;;;;;;28.17;14.00;;;5.00;86.30;;;;;;5066751;28;20468;-74
2022/03/25 02:38:49;;;;;;;24.13;14.23;;;5.00;85.40;;;;;;5066596;28;20457;-74
2022/03/25 02:41:15;;;;;;;27.97;15.83;;;5.00;85.50;;;;;;5049886;28;20248;-75
2022/03/25 02:43:40;;;;;;;20.10;14.40;;;5.10;84.20;;;;;;5071327;28;20890;-75
2022/03/25 02:46:06;;;;;;;24.70;14.57;;;5.10;83.30;;;;;;5070829;28;20185;-74
2022/03/25 02:48:32;;;;;;;23.83;14.43;;;5.10;85.30;;;;;;5072147;28;20211;-74
2022/03/25 02:50:58;;;;;;;26.30;15.37;;;5.10;86.10;;;;;;5071981;28;20716;-73
2022/03/25 02:53:25;;;;;;;25.60;14.80;;;5.00;87.10;;;;;;5071946;28;20415;-74
2022/03/25 02:55:51;;;;;;;38.40;15.63;;;5.10;86.50;;;;;;5072004;28;20417;-74
2022/03/25 02:58:17;;;;;;;25.55;14.75;;;5.00;87.60;;;;;;5070745;28;20421;-74
2022/03/25 03:00:43;;;;;;;23.00;13.47;;;5.00;87.80;;;;;;5071936;28;20275;-74
2022/03/25 03:03:09;;;;;;;24.87;15.13;;;4.90;87.50;;;;;;5072056;28;20420;-74
2022/03/25 03:05:35;;;;;;;25.43;15.50;;;4.90;88.70;;;;;;5071917;28;20429;-74
2022/03/25 03:08:01;;;;;;;23.27;14.50;;;4.80;89.50;;;;;;5071681;28;20186;-73
2022/03/25 03:10:27;;;;;;;25.75;14.38;;;4.80;89.90;;;;;;5071867;28;20279;-74
2022/03/25 03:12:53;;;;;;;23.80;15.50;;;4.60;89.30;;;;;;5071633;28;20190;-74
2022/03/25 03:15:20;;;;;;;24.83;14.90;;;4.70;89.40;;;;;;5071477;28;20503;-74
2022/03/25 03:17:49;;;;;;;26.30;15.35;;;4.60;89.00;;;;;;5071575;28;20502;-74
2022/03/25 03:20:16;;;;;;;23.97;14.70;;;4.70;88.90;;;;;;5071397;28;20203;-73
2022/03/25 03:22:43;;;;;;;27.60;15.73;;;4.70;89.30;;;;;;5071319;28;20411;-73
2022/03/25 03:25:10;;;;;;;26.40;13.20;;;4.60;89.70;;;;;;5071489;28;20988;-74
2022/03/25 03:27:38;;;;;;;24.00;14.27;;;4.60;89.40;;;;;;5069977;28;20421;-73
2022/03/25 03:30:09;;;;;;;20.67;14.10;;;4.60;89.40;;;;;;5071628;28;20459;-74
2022/03/25 03:32:36;;;;;;;24.45;14.82;;;4.60;90.10;;;;;;5071561;28;20238;-74
2022/03/25 03:35:03;;;;;;;25.48;14.18;;;4.50;90.50;;;;;;5071359;28;20216;-74
2022/03/25 03:37:29;;;;;;;28.07;14.83;;;4.60;90.50;;;;;;5071435;28;20216;-74
2022/03/25 03:39:55;;;;;;;29.80;15.23;;;4.60;89.40;;;;;;5070060;28;20918;-75
2022/03/25 03:42:21;;;;;;;23.10;14.47;;;4.60;89.10;;;;;;5071349;28;20219;-74
2022/03/25 03:44:47;;;;;;;25.03;14.50;;;4.60;89.40;;;;;;5071444;28;20267;-74
2022/03/25 03:47:14;;;;;;;22.77;14.00;;;4.60;88.50;;;;;;5071255;28;20641;-75
2022/03/25 03:49:40;;;;;;;22.35;14.55;;;4.70;88.30;;;;;;5071209;28;21074;-75
2022/03/25 03:52:06;;;;;;;22.10;14.20;;;4.60;90.00;;;;;;5071231;28;20189;-74
2022/03/25 03:54:32;;;;;;;26.37;16.37;;;4.60;89.90;;;;;;5069679;28;20427;-74
2022/03/25 03:56:58;;;;;;;22.77;15.50;;;4.60;89.90;;;;;;5071130;28;20432;-74
2022/03/25 03:59:24;;;;;;;23.65;14.27;;;4.70;90.00;;;;;;5070872;28;20512;-73
2022/03/25 04:01:50;;;;;;;26.27;16.47;;;4.60;90.50;;;;;;5069382;28;20221;-73
2022/03/25 04:04:17;;;;;;;31.73;15.30;;;4.60;90.60;;;;;;5071016;28;20415;-73
2022/03/25 04:06:43;;;;;;;24.75;15.38;;;4.60;90.70;;;;;;5070917;28;20658;-73
2022/03/25 04:09:09;;;;;;;26.92;16.65;;;4.50;90.80;;;;;;5070873;28;20314;-73
2022/03/25 04:11:35;;;;;;;31.03;15.60;;;4.60;90.90;;;;;;5071074;28;20208;-74
2022/03/25 04:14:00;;;;;;;26.83;15.23;;;4.60;90.80;;;;;;5052685;28;20188;-75
2022/03/25 04:16:28;;;;;;;26.87;16.83;;;4.40;90.90;;;;;;5071011;28;20272;-74
2022/03/25 04:18:53;;;;;;;29.67;16.50;;;4.50;91.50;;;;;;5070743;28;20190;-73
2022/03/25 04:21:19;;;;;;;26.87;15.60;;;4.40;92.10;;;;;;5070610;28;20478;-73
2022/03/25 04:23:44;;;;;;;25.00;15.20;;;4.30;91.60;;;;;;5070795;28;20181;-73
2022/03/25 04:26:10;;;;;;;30.07;16.43;;;4.30;91.50;;;;;;5070558;28;20182;-73
2022/03/25 04:28:36;;;;;;;27.17;16.17;;;4.30;91.70;;;;;;5070724;28;20181;-73
2022/03/25 04:31:02;;;;;;;27.00;14.73;;;4.20;91.90;;;;;;5068875;28;20867;-73
2022/03/25 04:33:28;;;;;;;27.42;15.05;;;4.10;92.00;;;;;;5070594;28;20193;-73
2022/03/25 04:35:54;;;;;;;22.38;14.18;;;4.10;92.00;;;;;;5070613;28;20186;-73
2022/03/25 04:38:20;;;;;;;29.33;15.60;;;4.20;92.10;;;;;;5070354;28;20235;-74
2022/03/25 04:40:45;;;;;;;21.97;14.50;;;4.10;92.10;;;;;;5070331;28;20214;-73
2022/03/25 04:43:11;;;;;;;32.93;18.13;;;4.10;92.20;;;;;;5068866;28;20189;-74
2022/03/25 04:45:37;;;;;;;34.00;17.70;;;4.10;92.30;;;;;;5070175;28;20179;-73
2022/03/25 04:48:04;;;;;;;27.63;16.75;;;4.10;92.60;;;;;;5070209;28;20892;-73
2022/03/25 04:50:30;;;;;;;28.40;15.43;;;4.00;93.10;;;;;;5070062;28;20210;-73
2022/03/25 04:52:56;;;;;;;26.65;15.73;;;3.90;93.20;;;;;;5070141;28;20501;-72
2022/03/25 04:55:21;;;;;;;32.20;16.38;;;3.80;93.10;;;;;;5070178;28;20217;-73
2022/03/25 04:57:48;;;;;;;27.37;16.47;;;3.80;93.60;;;;;;5068967;28;20218;-72
2022/03/25 05:00:15;;;;;;;32.05;16.17;;;3.80;93.80;;;;;;5068423;28;20792;-74
2022/03/25 05:02:41;;;;;;;28.48;16.52;;;3.70;94.00;;;;;;5069946;28;20236;-74
2022/03/25 05:05:07;;;;;;;28.30;17.73;;;3.70;94.10;;;;;;5051451;28;20183;-74
2022/03/25 05:07:34;;;;;;;31.03;18.50;;;3.70;94.50;;;;;;5068734;28;20658;-74
2022/03/25 05:10:01;;;;;;;28.25;17.67;;;3.60;94.60;;;;;;5069998;28;20542;-74
2022/03/25 05:12:29;;;;;;;25.33;15.53;;;3.70;94.90;;;;;;5070022;28;20193;-73
2022/03/25 05:14:54;;;;;;;33.65;17.63;;;3.70;94.70;;;;;;5068581;28;20447;-74
2022/03/25 05:17:20;;;;;;;26.73;15.27;;;3.70;94.90;;;;;;5068607;28;20633;-74
2022/03/25 05:19:46;;;;;;;27.47;17.60;;;3.70;94.90;;;;;;5067370;28;20201;-74
2022/03/25 05:22:11;;;;;;;30.77;16.40;;;3.60;94.90;;;;;;5050517;28;20221;-74
2022/03/25 05:24:37;;;;;;;23.90;15.37;;;3.70;94.90;;;;;;5068985;28;20187;-74
2022/03/25 05:27:04;;;;;;;26.37;15.53;;;3.60;94.60;;;;;;5067722;28;20181;-74
2022/03/25 05:29:30;;;;;;;31.17;15.95;;;3.60;94.50;;;;;;5068935;28;20199;-74
2022/03/25 05:31:56;;;;;;;26.23;16.17;;;3.60;94.70;;;;;;5068923;28;20238;-74
2022/03/25 05:34:21;;;;;;;24.10;14.60;;;3.70;94.40;;;;;;5067403;28;20516;-74
2022/03/25 05:36:47;;;;;;;26.70;15.97;;;3.70;95.00;;;;;;5068872;28;20653;-74
2022/03/25 05:39:15;;;;;;;30.60;16.43;;;3.70;94.90;;;;;;5068818;28;21071;-74
2022/03/25 05:41:41;;;;;;;24.73;16.40;;;3.80;94.90;;;;;;5068682;28;20468;-74
2022/03/25 05:44:07;;;;;;;32.50;16.42;;;3.80;94.80;;;;;;5068436;28;20173;-74
2022/03/25 05:46:34;;;;;;;29.93;17.53;;;3.90;94.50;;;;;;5068160;28;20613;-74
2022/03/25 05:49:00;;;;;;;28.92;17.13;;;4.00;94.30;;;;;;5066615;28;20411;-74
2022/03/25 05:51:26;;;;;;;37.03;16.20;;;4.00;94.80;;;;;;5068170;28;20188;-74
2022/03/25 05:53:52;;;;;;;33.30;17.20;;;4.00;94.70;;;;;;5068195;28;20427;-74
2022/03/25 05:56:17;;;;;;;43.20;16.27;;;4.00;94.90;;;;;;5068423;28;20415;-74
2022/03/25 05:58:43;;;;;;;40.43;18.37;;;4.10;95.00;;;;;;5068017;28;20173;-74
2022/03/25 06:01:09;;;;;;;31.17;17.17;;;4.20;95.20;;;;;;5068551;28;20628;-74
2022/03/25 06:03:34;;;;;;;31.40;17.10;;;4.20;95.10;;;;;;5068059;28;20179;-74
2022/03/25 06:06:03;;;;;;;30.93;17.10;;;4.40;94.80;;;;;;5067925;28;20206;-74
2022/03/25 06:08:30;;;;;;;34.67;18.90;;;4.50;94.30;;;;;;5050177;28;20654;-74
2022/03/25 06:10:56;;;;;;;34.80;18.58;;;4.60;94.10;;;;;;5067955;28;20219;-74
2022/03/25 06:13:21;;;;;;;34.58;17.60;;;4.80;94.40;;;;;;5066838;28;20181;-74
2022/03/25 06:15:47;;;;;;;52.90;17.13;;;5.30;93.50;;;;;;5068146;28;20248;-74
2022/03/25 06:18:13;;;;;;;26.93;15.83;;;6.00;91.90;;;;;;5066868;28;20416;-74
2022/03/25 06:20:39;;;;;;;28.07;17.10;;;6.50;89.10;;;;;;5067455;28;20433;-74
2022/03/25 06:23:05;;;;;;;28.03;17.00;;;7.10;86.60;;;;;;5066029;28;21027;-74
2022/03/25 06:25:31;;;;;;;29.80;16.97;;;7.50;82.60;;;;;;5068104;28;20179;-74
2022/03/25 06:27:59;;;;;;;31.43;18.30;;;7.80;81.80;;;;;;5067512;28;20427;-75
2022/03/25 06:30:28;;;;;;;28.07;18.13;;;8.00;80.20;;;;;;5067356;28;20199;-75
2022/03/25 06:32:54;;;;;;;23.60;16.20;;;8.10;79.50;;;;;;5065998;28;20409;-75
2022/03/25 06:35:21;;;;;;;29.60;18.27;;;8.10;79.10;;;;;;5067886;28;20409;-75
2022/03/25 06:37:47;;;;;;;30.07;18.67;;;8.30;79.00;;;;;;5066612;28;20895;-75
2022/03/25 06:40:13;;;;;;;27.67;17.70;;;8.50;77.40;;;;;;5066542;28;20441;-75
2022/03/25 06:42:40;;;;;;;25.80;17.23;;;8.80;75.80;;;;;;5066344;28;20530;-75
2022/03/25 06:45:08;;;;;;;27.87;16.47;;;9.00;74.60;;;;;;5067974;28;20925;-75
2022/03/25 06:47:35;;;;;;;28.93;16.93;;;9.10;74.30;;;;;;5068760;28;20462;-74
2022/03/25 06:50:02;;;;;;;35.53;17.90;;;9.30;73.80;;;;;;5067882;28;20895;-75
2022/03/25 06:52:28;;;;;;;32.47;17.27;;;9.50;73.50;;;;;;5066503;28;20418;-75
2022/03/25 06:54:54;;;;;;;25.20;17.80;;;9.70;72.30;;;;;;5067820;28;20783;-75
2022/03/25 06:57:20;;;;;;;27.30;17.47;;;9.90;71.30;;;;;;5049673;28;20532;-75
2022/03/25 06:59:46;;;;;;;30.20;19.47;;;10.10;70.00;;;;;;5066146;28;20790;-75
2022/03/25 07:02:12;;;;;;;34.37;22.17;;;10.30;70.00;;;;;;5066261;28;20468;-75
2022/03/25 07:04:39;;;;;;;35.50;20.43;;;10.10;69.70;;;;;;5067375;28;20418;-75
2022/03/25 07:07:06;;;;;;;31.97;20.73;;;10.40;70.30;;;;;;5067454;28;21183;-75
2022/03/25 07:09:33;;;;;;;26.40;18.60;;;10.40;71.20;;;;;;5065755;28;20448;-76
2022/03/25 07:11:59;;;;;;;31.30;20.10;;;10.40;71.30;;;;;;5067869;28;20925;-76
2022/03/25 07:14:26;;;;;;;28.30;18.70;;;10.40;70.20;;;;;;5067357;28;20476;-75
2022/03/25 07:16:52;;;;;;;41.07;19.80;;;10.50;69.50;;;;;;5067456;28;21028;-75
2022/03/25 07:19:18;;;;;;;32.90;19.93;;;10.70;68.70;;;;;;5065778;28;21059;-75
2022/03/25 07:21:44;;;;;;;36.77;20.23;;;10.90;64.80;;;;;;5065699;28;20461;-75
2022/03/25 07:24:11;;;;;;;30.00;19.60;;;10.90;65.10;;;;;;5066852;28;20856;-75
2022/03/25 07:26:37;;;;;;;32.70;18.67;;;11.10;64.40;;;;;;5067107;28;21032;-74
2022/03/25 07:29:03;;;;;;;30.90;20.93;;;11.50;65.80;;;;;;5068468;28;20437;-74
2022/03/25 07:31:32;;;;;;;31.33;19.97;;;11.60;64.60;;;;;;5070454;28;20425;-74
2022/03/25 07:33:58;;;;;;;30.33;20.23;;;11.90;63.90;;;;;;5070181;28;20448;-75
2022/03/25 07:36:24;;;;;;;35.40;20.10;;;12.10;62.30;;;;;;5070365;28;20423;-75
2022/03/25 07:38:51;;;;;;;34.63;20.13;;;12.30;61.30;;;;;;5068543;28;20997;-75
2022/03/25 07:41:17;;;;;;;31.40;21.20;;;12.40;60.90;;;;;;5070095;28;20497;-75
2022/03/25 07:43:43;;;;;;;43.80;22.30;;;12.30;59.00;;;;;;5069991;28;20409;-75
2022/03/25 07:46:09;;;;;;;32.77;21.57;;;12.30;60.00;;;;;;5070340;28;20412;-74
2022/03/25 07:48:34;;;;;;;34.13;20.43;;;12.20;59.20;;;;;;5069968;28;20455;-74
2022/03/25 07:51:00;;;;;;;30.73;20.10;;;12.30;59.00;;;;;;5069946;28;20214;-75
2022/03/25 07:53:26;;;;;;;32.83;20.33;;;12.70;57.50;;;;;;5070071;28;20267;-74
2022/03/25 07:55:52;;;;;;;31.87;20.07;;;12.60;57.60;;;;;;5070163;28;20192;-75
2022/03/25 07:58:22;;;;;;;34.70;20.00;;;12.80;56.20;;;;;;5070077;28;20217;-75
2022/03/25 08:00:48;;;;;;;27.87;17.13;;;12.80;54.30;;;;;;5069827;28;20768;-75
2022/03/25 08:03:15;;;;;;;31.93;18.50;;;12.90;54.20;;;;;;5069644;28;20412;-75
2022/03/25 08:05:40;;;;;;;30.13;18.83;;;13.10;54.40;;;;;;5069956;28;21087;-75
2022/03/25 08:08:06;;;;;;;31.60;18.97;;;13.20;53.40;;;;;;5069818;28;20419;-75
2022/03/25 08:10:32;;;;;;;29.63;19.30;;;13.40;53.30;;;;;;5069324;28;20201;-75
2022/03/25 08:12:59;;;;;;;32.47;20.60;;;13.30;54.40;;;;;;5068089;28;20197;-74
2022/03/25 08:15:27;;;;;;;31.70;19.50;;;13.50;52.70;;;;;;5069616;28;20426;-75
2022/03/25 08:18:20;;;;;;;32.10;20.07;;;13.60;51.40;;;;;;5069530;28;20447;-75
2022/03/25 08:20:47;;;;;;;33.23;20.57;;;13.80;51.20;;;;;;5068374;28;20476;-75
2022/03/25 08:28:49;;;;;;;37.40;21.23;;;14.20;51.20;;;;;;5069499;28;20416;-75
2022/03/25 08:31:15;;;;;;;33.87;19.67;;;14.30;51.60;;;;;;5069309;28;20428;-75
2022/03/25 08:33:41;;;;;;;31.60;19.03;;;14.50;50.20;;;;;;5051058;28;20793;-75
2022/03/25 08:36:07;;;;;;;31.80;20.77;;;14.60;48.10;;;;;;5069122;28;20507;-75
2022/03/25 08:38:32;;;;;;;34.70;21.47;;;14.90;47.40;;;;;;5069058;28;20428;-75
2022/03/25 08:40:58;;;;;;;34.80;21.17;;;15.10;48.20;;;;;;5067875;28;20218;-75
2022/03/25 08:43:24;;;;;;;34.83;22.00;;;15.30;46.00;;;;;;5067481;28;20607;-75
2022/03/25 08:45:49;;;;;;;29.67;19.27;;;15.40;45.60;;;;;;5069078;28;20212;-75
2022/03/25 08:48:15;;;;;;;32.23;22.07;;;15.70;46.30;;;;;;5067746;28;20892;-75
2022/03/25 08:50:41;;;;;;;31.07;21.40;;;16.10;46.10;;;;;;5068756;28;20248;-75
2022/03/25 08:53:06;;;;;;;29.17;20.70;;;16.40;45.70;;;;;;5068803;28;20187;-75
2022/03/25 08:55:32;;;;;;;29.40;20.73;;;16.60;45.40;;;;;;5068749;28;20240;-75
2022/03/25 08:57:58;;;;;;;33.30;21.73;;;16.90;44.10;;;;;;5068733;28;20286;-75
2022/03/25 09:00:23;;;;;;;43.23;22.70;;;17.00;44.30;;;;;;5068583;28;20206;-75
2022/03/25 09:02:49;;;;;;;37.37;23.87;;;17.40;45.50;;;;;;5068590;28;20273;-75
2022/03/25 09:05:16;;;;;;;38.63;26.00;;;17.60;45.00;;;;;;5068426;28;20228;-75
2022/03/25 09:07:42;;;;;;;38.93;27.57;;;18.00;46.90;;;;;;5068484;28;20417;-75
2022/03/25 09:10:11;;;;;;;40.83;25.13;;;18.10;45.00;;;;;;5068582;28;20457;-75
2022/03/25 09:12:37;;;;;;;35.27;24.30;;;18.30;45.20;;;;;;5068288;28;20567;-75
2022/03/25 09:15:05;;;;;;;37.43;24.47;;;18.50;43.80;;;;;;5068605;28;20460;-75
2022/03/25 09:17:30;;;;;;;45.83;27.27;;;18.80;43.00;;;;;;5068124;28;20433;-75
2022/03/25 09:19:56;;;;;;;39.80;26.07;;;19.00;42.80;;;;;;5066587;28;20446;-75
2022/03/25 09:22:22;;;;;;;33.70;23.80;;;19.30;42.70;;;;;;5050114;28;20225;-76
2022/03/25 09:24:48;;;;;;;32.53;22.63;;;19.30;41.50;;;;;;5066828;28;20610;-76
2022/03/25 09:27:13;;;;;;;36.60;24.43;;;19.90;41.60;;;;;;5068453;28;20189;-76
2022/03/25 09:29:39;;;;;;;37.87;23.23;;;20.30;41.70;;;;;;5068214;28;20584;-76
2022/03/25 09:32:06;;;;;;;37.20;24.20;;;20.40;41.70;;;;;;5067719;28;20695;-76
2022/03/25 09:37:16;;;;;;;33.90;23.47;;;20.90;38.40;;;;;;5068938;28;20470;-76
2022/03/25 09:39:42;;;;;;;34.40;25.57;;;21.30;38.50;;;;;;5068553;28;20443;-75
2022/03/25 09:42:08;;;;;;;41.33;24.70;;;21.60;36.90;;;;;;5068262;28;20224;-76
2022/03/25 09:44:34;;;;;;;34.63;24.23;;;21.80;36.70;;;;;;5067090;28;20436;-76
2022/03/25 09:47:01;;;;;;;36.87;24.70;;;21.90;36.40;;;;;;5068628;28;20429;-75
2022/03/25 09:49:27;;;;;;;31.00;24.70;;;22.30;34.30;;;;;;5068391;28;20937;-76
2022/03/25 09:51:53;;;;;;;37.77;26.03;;;22.40;34.50;;;;;;5067200;28;20902;-75
2022/03/25 09:54:20;;;;;;;36.57;24.00;;;22.40;35.10;;;;;;5068525;28;20418;-75
2022/03/25 09:56:47;;;;;;;34.00;24.70;;;22.50;34.80;;;;;;5068442;28;20247;-76
2022/03/25 09:59:20;;;;;;;47.20;24.73;;;22.80;34.40;;;;;;5068301;28;20452;-75
2022/03/25 10:01:46;;;;;;;29.73;23.87;;;22.90;33.60;;;;;;5068003;28;20873;-75
2022/03/25 10:04:41;;;;;;;33.17;24.50;;;23.10;33.60;;;;;;5068179;28;20502;-76
2022/03/25 10:07:22;;;;;;;31.53;24.77;;;22.90;33.60;;;;;;5068047;28;20503;-76
2022/03/25 10:10:07;;;;;;;31.47;23.60;;;22.70;34.40;;;;;;5066448;28;20450;-76
2022/03/25 10:12:34;;;;;;;37.77;22.87;;;22.80;35.10;;;;;;5066415;28;20457;-76
2022/03/25 10:15:15;;;;;;;29.63;22.80;;;22.70;34.70;;;;;;5068016;28;20429;-75
2022/03/25 10:18:06;;;;;;;32.20;24.00;;;22.60;34.90;;;;;;5067883;28;20848;-75
2022/03/25 10:20:33;;;;;;;32.60;23.57;;;22.70;34.90;;;;;;5067484;28;20431;-76
2022/03/25 10:23:00;;;;;;;34.83;22.73;;;22.70;35.50;;;;;;5066302;28;20475;-76
2022/03/25 10:25:48;;;;;;;36.80;23.90;;;22.70;34.50;;;;;;5067575;28;20416;-75
2022/03/25 10:28:28;;;;;;;36.23;24.80;;;23.20;35.10;;;;;;5067928;28;20409;-76
2022/03/25 10:31:17;;;;;;;33.13;24.33;;;23.20;34.30;;;;;;5068116;28;20431;-76
2022/03/25 10:33:54;;;;;;;35.33;25.10;;;23.40;34.60;;;;;;5068309;28;20419;-76
2022/03/25 10:36:23;;;;;;;34.87;25.50;;;23.80;34.90;;;;;;5067972;28;20447;-76
2022/03/25 10:38:54;;;;;;;37.10;26.30;;;23.60;34.80;;;;;;5067803;28;20919;-76
2022/03/25 10:41:24;;;;;;;36.27;25.70;;;23.50;34.10;;;;;;5067783;28;20465;-76
2022/03/25 10:44:04;;;;;;;34.17;24.47;;;23.30;34.10;;;;;;5066852;28;20537;-76
2022/03/25 10:46:41;;;;;;;37.97;25.90;;;23.10;35.20;;;;;;5068050;28;20528;-76
2022/03/25 10:49:13;;;;;;;34.33;25.40;;;22.90;35.00;;;;;;5067900;28;20992;-75
2022/03/25 10:51:46;;;;;;;35.07;25.40;;;22.90;35.70;;;;;;5067781;28;21010;-76
2022/03/25 10:54:14;;;;;;;36.20;26.30;;;23.30;35.40;;;;;;5066649;28;20426;-75
2022/03/25 10:56:45;;;;;;;35.17;24.97;;;23.30;34.40;;;;;;5067577;28;21247;-75
2022/03/25 10:59:35;;;;;;;40.00;25.90;;;23.40;33.10;;;;;;5067516;28;20445;-76
2022/03/25 11:02:06;;;;;;;37.60;24.43;;;23.40;33.90;;;;;;5066127;28;20845;-76
2022/03/25 11:04:33;;;;;;;42.17;26.43;;;23.70;32.50;;;;;;5069183;28;20428;-75
2022/03/25 11:07:01;;;;;;;39.60;26.33;;;23.80;34.00;;;;;;5070034;28;20883;-76
2022/03/25 11:09:27;;;;;;;38.53;26.33;;;24.20;34.50;;;;;;5069902;28;20452;-76
2022/03/25 11:11:55;;;;;;;37.10;26.80;;;24.00;33.90;;;;;;5071400;28;20449;-76
2022/03/25 11:14:21;;;;;;;42.90;26.40;;;24.30;34.10;;;;;;5071121;28;20563;-75
2022/03/25 11:16:53;;;;;;;41.00;26.77;;;24.70;34.20;;;;;;5071376;28;20467;-76
2022/03/25 11:19:20;;;;;;;34.97;23.83;;;24.80;33.60;;;;;;5070794;28;20930;-75
2022/03/25 11:21:47;;;;;;;32.63;23.87;;;24.90;30.00;;;;;;5069313;28;21298;-76
2022/03/25 11:24:38;;;;;;;36.70;26.63;;;24.50;29.80;;;;;;5069265;28;20455;-76
2022/03/25 11:27:13;;;;;;;40.63;25.43;;;24.30;30.20;;;;;;5070672;28;20429;-76
2022/03/25 11:29:44;;;;;;;34.10;23.93;;;24.30;30.00;;;;;;5070618;28;20441;-76
2022/03/25 11:32:11;;;;;;;35.03;25.30;;;24.50;29.60;;;;;;5068820;28;20434;-76
2022/03/25 11:34:45;;;;;;;33.13;24.60;;;24.30;28.80;;;;;;5070428;28;20425;-76
2022/03/25 11:37:20;;;;;;;33.93;25.20;;;24.60;29.80;;;;;;5069071;28;20448;-76
2022/03/25 11:39:45;;;;;;;40.23;24.47;;;24.60;29.20;;;;;;5070194;28;20444;-76
2022/03/25 11:42:37;;;;;;;40.97;24.00;;;24.60;28.60;;;;;;5070564;28;20992;-76
2022/03/25 11:45:35;;;;;;;31.77;23.20;;;24.80;28.10;;;;;;5070257;28;20418;-76
2022/03/25 11:48:00;;;;;;;33.77;24.67;;;24.70;28.90;;;;;;5066174;28;20422;-76
2022/03/25 11:50:29;;;;;;;32.10;24.57;;;24.70;28.60;;;;;;5070904;28;20534;-75
2022/03/25 11:52:55;;;;;;;33.23;23.57;;;24.70;29.10;;;;;;5070838;28;20258;-75
2022/03/25 11:55:21;;;;;;;29.97;24.10;;;25.00;28.20;;;;;;5070695;28;20472;-75
2022/03/25 11:57:47;;;;;;;32.97;23.93;;;25.20;28.30;;;;;;5069308;28;20422;-75
2022/03/25 12:00:28;;;;;;;32.60;24.90;;;25.20;28.70;;;;;;5070486;28;20217;-76
2022/03/25 12:03:05;;;;;;;27.33;22.00;;;25.10;27.70;;;;;;5070508;28;20302;-78
2022/03/25 12:05:32;;;;;;;27.07;21.77;;;24.90;26.70;;;;;;5069546;28;20430;-77
2022/03/25 12:08:36;;;;;;;27.97;21.63;;;24.90;25.80;;;;;;5068851;28;20435;-78
2022/03/25 12:11:06;;;;;;;28.73;21.07;;;24.90;26.10;;;;;;5046882;28;20524;-75
2022/03/25 12:13:51;;;;;;;25.67;20.23;;;24.80;24.30;;;;;;5046933;28;20514;-75
2022/03/25 12:16:44;;;;;;;27.60;20.93;;;24.90;24.70;;;;;;5060947;28;20429;-75
2022/03/25 12:19:31;;;;;;;31.30;21.30;;;24.90;25.20;;;;;;5069593;28;20443;-78
2022/03/25 12:22:19;;;;;;;29.47;19.53;;;24.90;24.40;;;;;;5069468;28;20470;-76
2022/03/25 12:24:45;;;;;;;33.10;21.00;;;24.90;23.70;;;;;;5068575;28;20419;-77
2022/03/25 12:27:11;;;;;;;22.47;18.50;;;24.90;24.20;;;;;;5068199;28;20515;-77
2022/03/25 12:29:43;;;;;;;33.87;19.87;;;24.80;24.10;;;;;;5069746;28;21111;-77
2022/03/25 12:32:14;;;;;;;29.83;20.13;;;24.70;24.90;;;;;;5068029;28;20481;-77
2022/03/25 12:35:08;;;;;;;26.47;20.00;;;24.70;24.00;;;;;;5069425;28;20431;-77
2022/03/25 12:37:42;;;;;;;28.67;20.50;;;24.80;23.20;;;;;;5068101;28;20509;-77
2022/03/25 12:40:23;;;;;;;27.67;19.50;;;25.10;24.90;;;;;;5069901;28;20813;-78
2022/03/25 12:42:58;;;;;;;26.83;19.43;;;25.00;24.00;;;;;;5069935;28;21063;-77
2022/03/25 12:45:38;;;;;;;25.07;18.60;;;24.90;23.30;;;;;;5070171;28;20547;-78
2022/03/25 12:48:11;;;;;;;25.27;20.30;;;25.20;24.30;;;;;;5070320;28;20419;-77